This is the latest recevied weather packets stored in our database for station/object IZ3VCM. If no packets are shown the sender has not sent any weather packets the latest 10 day(s).
| Time | Temp. | Humidity | Pressure | Rain* | Wind** | Luminosity | Snow |
|---|---|---|---|---|---|---|---|
| 1778147102 | 22.22° C | 55% | 1013.1 hPa | 0 mm | - | - | - |
| 1778146205 | 22.22° C | 55% | 1013 hPa | 0 mm | - | - | - |
| 1778145303 | 21.67° C | 55% | 1012.9 hPa | 0 mm | - | - | - |
| 1778144404 | 21.67° C | 56% | 1012.9 hPa | 0 mm | - | - | - |
| 1778143503 | 21.67° C | 59% | 1013 hPa | 0 mm | - | - | - |
| 1778142604 | 20.56° C | 60% | 1013 hPa | 0 mm | - | - | - |
| 1778141703 | 20.56° C | 62% | 1012.8 hPa | 0 mm | - | - | - |
| 1778139903 | 19.44° C | 69% | 1012.9 hPa | 0 mm | - | - | - |
| 1778139004 | 18.89° C | 75% | 1013 hPa | 0 mm | - | - | - |
| 1778138103 | 17.78° C | 78% | 1013 hPa | 0 mm | - | - | - |
| 1778137205 | 17.22° C | 81% | 1012.7 hPa | 0 mm | - | - | - |
| 1778136303 | 16.11° C | 88% | 1012.7 hPa | 0 mm | - | - | - |
| 1778105703 | 13.33° C | 91% | 1010.4 hPa | 0 mm | - | - | - |
| 1778104805 | 13.33° C | 91% | 1010.3 hPa | 0 mm | - | - | - |
| 1778103903 | 13.33° C | 91% | 1010.2 hPa | 0 mm | - | - | - |
| 1778103005 | 13.33° C | 91% | 1010.2 hPa | 0 mm | - | - | - |
| 1778102103 | 13.89° C | 90% | 1010.2 hPa | 0 mm | - | - | - |
| 1778101205 | 14.44° C | 90% | 1010.2 hPa | 0 mm | - | - | - |
| 1778100304 | 14.44° C | 90% | 1010.3 hPa | 0 mm | - | - | - |
| 1778099407 | 14.44° C | 90% | 1010 hPa | 0 mm | - | - | - |
| 1778098503 | 14.44° C | 89% | 1010 hPa | 0 mm | - | - | - |
| 1778097605 | 14.44° C | 89% | 1009.7 hPa | 0 mm | - | - | - |
| 1778096703 | 15° C | 89% | 1009.4 hPa | 0 mm | - | - | - |
| 1778095805 | 15° C | 88% | 1009.3 hPa | 0 mm | - | - | - |
| 1778094903 | 15.56° C | 87% | 1009 hPa | 0 mm | - | - | - |
* Rain latest hour (hover to see other rain measurements)
** Current wind speed in m/s (hover to see current wind gust speed)